Time;durP1;ratioP1;P1;durP2;ratioP2;P2;SDS_P1;SDS_P2;PMS_P1;PMS_P2;Temp;Humidity;BMP_temperature;BMP_pressure;BME280_temperature;BME280_humidity;BME280_pressure;Samples;Min_cycle;Max_cycle;Signal;HPM_P1;HPM_P2
2021/05/17 00:01:31;;;;;;;2.37;2.10;;;16.00;99.90;;;;;;6300118;28;20959;-59
2021/05/17 00:04:35;;;;;;;2.30;2.10;;;16.00;99.90;;;;;;6300092;28;21019;-59
2021/05/17 00:07:37;;;;;;;2.80;1.87;;;16.00;99.90;;;;;;6299966;28;20473;-59
2021/05/17 00:10:42;;;;;;;2.80;2.03;;;16.00;99.90;;;;;;6299906;28;20506;-59
2021/05/17 00:13:45;;;;;;;1.83;1.73;;;16.00;99.90;;;;;;6299442;28;20812;-60
2021/05/17 00:16:48;;;;;;;4.70;2.13;;;16.00;99.90;;;;;;6299437;28;20492;-60
2021/05/17 00:19:51;;;;;;;2.10;2.00;;;16.00;99.90;;;;;;6299180;28;20961;-60
2021/05/17 00:22:54;;;;;;;2.00;1.90;;;16.00;99.90;;;;;;6299885;28;20480;-60
2021/05/17 00:25:59;;;;;;;1.90;1.80;;;16.00;99.90;;;;;;6299548;28;20469;-60
2021/05/17 00:29:02;;;;;;;2.40;2.20;;;16.00;99.90;;;;;;6299577;28;20902;-60
2021/05/17 00:32:07;;;;;;;3.33;2.10;;;15.90;99.90;;;;;;6299336;28;20542;-60
2021/05/17 00:35:12;;;;;;;2.10;2.00;;;16.00;99.90;;;;;;6299365;28;20793;-59
2021/05/17 00:38:15;;;;;;;2.40;2.30;;;15.90;99.90;;;;;;6299209;28;20488;-60
2021/05/17 00:41:19;;;;;;;3.97;2.07;;;16.00;99.90;;;;;;6299297;28;20476;-59
2021/05/17 00:44:22;;;;;;;2.10;2.00;;;16.00;99.90;;;;;;6299112;28;20484;-60
2021/05/17 00:47:27;;;;;;;1.87;1.77;;;16.00;99.90;;;;;;6299109;28;20480;-60
2021/05/17 00:50:30;;;;;;;2.33;2.00;;;16.00;99.90;;;;;;6299021;28;20473;-60
2021/05/17 00:53:34;;;;;;;2.10;2.00;;;16.00;99.90;;;;;;6299321;28;20476;-59
2021/05/17 00:56:38;;;;;;;2.17;2.00;;;16.00;99.90;;;;;;6294784;28;20461;-60
2021/05/17 00:59:41;;;;;;;2.20;2.10;;;16.00;99.90;;;;;;6298988;28;20477;-60
2021/05/17 01:02:44;;;;;;;2.10;2.00;;;15.90;99.90;;;;;;6298952;28;20969;-60
2021/05/17 01:05:49;;;;;;;2.53;2.33;;;15.90;99.90;;;;;;6298990;28;20829;-60
2021/05/17 01:08:59;;;;;;;2.73;1.90;;;15.90;99.90;;;;;;6298951;28;20469;-60
2021/05/17 01:12:03;;;;;;;2.10;2.00;;;15.90;99.90;;;;;;6298549;28;20769;-60
2021/05/17 01:15:08;;;;;;;4.40;2.20;;;15.80;99.90;;;;;;6298600;28;20984;-60
2021/05/17 01:18:11;;;;;;;2.60;2.10;;;15.70;99.90;;;;;;6298403;28;20994;-59
2021/05/17 01:21:17;;;;;;;2.40;2.20;;;15.60;99.90;;;;;;6298987;28;20477;-60
2021/05/17 01:24:21;;;;;;;2.60;2.17;;;15.60;99.90;;;;;;6298728;28;21060;-61
2021/05/17 01:27:26;;;;;;;2.43;2.07;;;15.60;99.90;;;;;;6298795;28;20476;-60
2021/05/17 01:30:30;;;;;;;3.53;2.50;;;15.50;99.90;;;;;;6298440;28;20477;-61
2021/05/17 01:33:34;;;;;;;3.30;2.40;;;15.60;99.90;;;;;;6298781;28;20473;-61
2021/05/17 01:36:37;;;;;;;1.93;1.83;;;15.60;99.90;;;;;;6300005;28;20477;-60
2021/05/17 01:39:43;;;;;;;3.13;2.17;;;15.60;99.90;;;;;;6303302;28;20469;-60
2021/05/17 01:42:46;;;;;;;2.60;2.17;;;15.60;99.90;;;;;;6303072;28;20469;-60
2021/05/17 01:45:49;;;;;;;1.60;1.50;;;15.50;99.90;;;;;;6302937;28;20976;-60
2021/05/17 01:48:55;;;;;;;1.60;1.50;;;15.40;99.90;;;;;;6303069;28;20476;-60
2021/05/17 01:51:58;;;;;;;4.60;2.10;;;15.20;99.90;;;;;;6302639;28;20481;-60
2021/05/17 01:55:05;;;;;;;1.70;1.60;;;15.20;99.90;;;;;;6303064;28;20468;-60
2021/05/17 01:58:08;;;;;;;2.27;2.17;;;15.10;99.90;;;;;;6302652;28;20464;-60
2021/05/17 02:01:15;;;;;;;1.80;1.70;;;15.10;99.90;;;;;;6298064;28;20465;-60
2021/05/17 02:04:18;;;;;;;2.40;2.20;;;15.20;99.90;;;;;;6302886;28;20441;-60
2021/05/17 02:07:21;;;;;;;2.20;2.00;;;15.20;99.90;;;;;;6303041;28;20437;-60
2021/05/17 02:10:25;;;;;;;1.43;1.33;;;15.30;99.90;;;;;;6302108;28;20486;-61
2021/05/17 02:13:28;;;;;;;1.63;1.53;;;15.30;99.90;;;;;;6302442;28;20586;-60
2021/05/17 02:16:32;;;;;;;1.50;1.40;;;15.30;99.90;;;;;;6302394;28;20480;-60
2021/05/17 02:19:35;;;;;;;1.70;1.60;;;15.30;99.90;;;;;;6302129;28;20469;-61
2021/05/17 02:22:39;;;;;;;1.03;1.00;;;15.30;99.90;;;;;;6302235;28;20461;-60
2021/05/17 02:25:45;;;;;;;1.70;1.60;;;15.30;99.90;;;;;;6302144;28;20465;-60
2021/05/17 02:28:48;;;;;;;1.60;1.00;;;15.30;99.90;;;;;;6301983;28;20551;-61
2021/05/17 02:31:51;;;;;;;2.70;1.50;;;15.20;99.90;;;;;;6302356;28;20802;-60
2021/05/17 02:34:56;;;;;;;2.00;1.17;;;15.20;99.90;;;;;;6302325;28;20472;-60
2021/05/17 02:38:00;;;;;;;1.50;1.40;;;15.10;99.90;;;;;;6301832;28;20499;-61
2021/05/17 02:41:05;;;;;;;1.40;1.30;;;15.10;99.90;;;;;;6301788;28;20469;-60
2021/05/17 02:44:09;;;;;;;1.10;1.00;;;15.10;99.90;;;;;;6301752;28;20457;-60
2021/05/17 02:47:12;;;;;;;1.67;1.30;;;15.10;99.90;;;;;;6301152;28;20469;-60
2021/05/17 02:50:16;;;;;;;1.13;1.07;;;15.10;99.90;;;;;;6300942;28;20473;-60
2021/05/17 02:53:42;;;;;;;1.20;1.00;;;14.90;99.90;;;;;;6301602;28;20465;-60
2021/05/17 02:57:08;;;;;;;1.20;1.10;;;14.60;99.90;;;;;;6301311;28;20558;-61
2021/05/17 03:00:17;;;;;;;2.30;1.30;;;14.50;99.90;;;;;;6301207;28;20961;-60
2021/05/17 03:03:24;;;;;;;2.13;1.20;;;14.20;99.90;;;;;;6301766;28;20466;-60
2021/05/17 03:06:34;;;;;;;1.33;1.23;;;14.10;99.90;;;;;;6301269;28;20476;-60
2021/05/17 03:09:37;;;;;;;1.93;1.33;;;14.00;99.90;;;;;;6301111;28;20496;-60
2021/05/17 03:12:42;;;;;;;1.23;1.13;;;13.80;99.90;;;;;;6301143;28;20470;-60
2021/05/17 03:15:46;;;;;;;0.83;0.80;;;13.80;99.90;;;;;;6300763;28;20477;-60
2021/05/17 03:18:50;;;;;;;1.00;1.00;;;13.70;99.90;;;;;;6300802;28;20491;-60
2021/05/17 03:21:56;;;;;;;1.30;1.20;;;13.70;99.90;;;;;;6300700;28;20473;-60
2021/05/17 03:25:02;;;;;;;2.07;1.10;;;13.60;99.90;;;;;;6300884;28;20476;-61
2021/05/17 03:28:06;;;;;;;1.20;1.10;;;13.80;99.90;;;;;;6300315;28;20453;-61
2021/05/17 03:31:09;;;;;;;1.10;1.03;;;13.90;99.90;;;;;;6300410;28;20937;-60
2021/05/17 03:34:12;;;;;;;2.40;1.20;;;14.10;99.90;;;;;;6300285;28;20765;-60
2021/05/17 03:37:14;;;;;;;1.53;1.20;;;14.10;99.90;;;;;;6300738;28;20450;-60
2021/05/17 03:40:18;;;;;;;1.57;1.00;;;14.00;99.90;;;;;;6300124;28;20493;-60
2021/05/17 03:43:22;;;;;;;2.60;1.03;;;13.90;99.90;;;;;;6300546;28;20912;-60
2021/05/17 03:46:25;;;;;;;2.37;2.17;;;14.00;99.90;;;;;;6299915;28;20802;-60
2021/05/17 03:49:27;;;;;;;1.10;1.03;;;14.20;99.90;;;;;;6300195;28;20562;-60
2021/05/17 03:52:30;;;;;;;1.40;1.10;;;14.30;99.90;;;;;;6299787;28;20949;-60
2021/05/17 03:55:33;;;;;;;1.20;1.10;;;14.40;99.90;;;;;;6300023;28;20465;-60
2021/05/17 03:58:37;;;;;;;1.33;1.23;;;14.50;99.90;;;;;;6299871;28;20469;-59
2021/05/17 04:01:39;;;;;;;1.37;1.07;;;14.50;99.90;;;;;;6300077;28;20461;-59
2021/05/17 04:04:49;;;;;;;1.47;1.37;;;14.50;99.90;;;;;;6300161;28;20484;-59
2021/05/17 04:08:22;;;;;;;2.30;1.20;;;14.60;99.90;;;;;;6299830;28;20465;-59
2021/05/17 04:14:46;;;;;;;2.83;1.53;;;14.60;99.90;;;;;;6299279;28;20486;-59
2021/05/17 04:17:49;;;;;;;1.90;1.13;;;14.60;99.90;;;;;;6299486;28;20619;-59
2021/05/17 04:20:54;;;;;;;3.60;1.73;;;14.70;99.90;;;;;;6299478;28;20473;-59
2021/05/17 04:23:56;;;;;;;1.20;1.10;;;14.80;99.90;;;;;;6299268;28;20487;-59
2021/05/17 04:27:00;;;;;;;2.40;1.33;;;14.80;99.90;;;;;;6299427;28;20794;-59
2021/05/17 04:30:07;;;;;;;2.60;1.30;;;14.80;99.90;;;;;;6298787;28;20469;-59
2021/05/17 04:33:09;;;;;;;1.20;1.10;;;14.80;99.90;;;;;;6299464;28;20484;-59
2021/05/17 04:36:12;;;;;;;1.50;1.23;;;14.70;99.90;;;;;;6299366;28;20465;-59
2021/05/17 04:39:15;;;;;;;2.03;1.60;;;14.70;99.90;;;;;;6298900;28;20510;-59
2021/05/17 04:42:18;;;;;;;2.70;1.17;;;14.80;99.90;;;;;;6299215;28;20894;-59
2021/05/17 04:45:24;;;;;;;3.80;1.27;;;14.80;99.90;;;;;;6298738;28;20985;-59
2021/05/17 04:48:30;;;;;;;2.60;1.10;;;14.80;99.90;;;;;;6299241;28;20567;-59
2021/05/17 04:51:33;;;;;;;2.10;1.23;;;14.80;99.90;;;;;;6298525;28;20926;-59
2021/05/17 04:54:38;;;;;;;1.97;1.30;;;14.80;99.90;;;;;;6297941;28;20848;-59
2021/05/17 04:57:40;;;;;;;1.53;1.43;;;14.80;99.90;;;;;;6296554;28;20465;-59
2021/05/17 05:00:45;;;;;;;2.00;1.57;;;14.80;99.90;;;;;;6296656;28;20477;-59
2021/05/17 05:03:48;;;;;;;1.90;1.70;;;14.70;99.90;;;;;;6296445;28;20475;-59
2021/05/17 05:06:51;;;;;;;1.73;1.50;;;14.60;99.90;;;;;;6296466;28;20473;-59
2021/05/17 05:09:53;;;;;;;3.03;1.20;;;14.60;99.90;;;;;;6297565;28;20473;-60
2021/05/17 05:12:56;;;;;;;2.93;1.90;;;14.60;99.90;;;;;;6302251;28;20473;-59
2021/05/17 05:16:02;;;;;;;2.67;1.67;;;14.60;99.90;;;;;;6287288;28;20498;-59
2021/05/17 05:19:05;;;;;;;2.07;1.60;;;14.60;99.90;;;;;;6302290;28;20473;-63
2021/05/17 05:22:07;;;;;;;1.67;1.57;;;14.60;99.90;;;;;;6302671;28;20437;-63
2021/05/17 05:25:12;;;;;;;2.30;1.30;;;14.50;99.90;;;;;;6302999;28;20463;-63
2021/05/17 05:28:18;;;;;;;3.87;1.50;;;14.50;99.90;;;;;;6303411;28;20539;-63
2021/05/17 05:31:24;;;;;;;2.43;2.20;;;14.50;99.90;;;;;;6302772;28;20454;-62
2021/05/17 05:34:29;;;;;;;1.63;1.53;;;14.50;99.90;;;;;;6303361;28;20464;-63
2021/05/17 05:37:32;;;;;;;1.53;1.27;;;14.40;99.90;;;;;;6303008;28;20465;-63
2021/05/17 05:40:35;;;;;;;2.73;1.77;;;14.40;99.90;;;;;;6303330;28;20464;-63
2021/05/17 05:43:38;;;;;;;1.40;1.30;;;14.50;99.90;;;;;;6303060;28;20463;-63
2021/05/17 05:46:41;;;;;;;1.87;1.50;;;14.50;99.90;;;;;;6303308;28;20477;-64
2021/05/17 05:49:46;;;;;;;1.60;1.50;;;14.50;99.90;;;;;;6302294;28;20820;-65
2021/05/17 05:52:49;;;;;;;4.77;1.93;;;14.40;99.90;;;;;;6303029;28;20481;-63
2021/05/17 05:55:51;;;;;;;2.23;1.70;;;14.50;99.90;;;;;;6302677;28;20483;-63
2021/05/17 05:58:54;;;;;;;2.47;2.30;;;14.50;99.90;;;;;;6303112;28;20477;-63
2021/05/17 06:01:58;;;;;;;2.23;2.00;;;14.50;99.90;;;;;;6302491;28;20480;-63
2021/05/17 06:05:01;;;;;;;3.33;3.03;;;14.40;99.90;;;;;;6302661;28;20813;-64
2021/05/17 06:08:04;;;;;;;4.20;2.77;;;14.40;99.90;;;;;;6302867;28;20792;-65
2021/05/17 06:11:07;;;;;;;2.83;2.47;;;14.30;99.90;;;;;;6302278;28;20469;-64
2021/05/17 06:14:11;;;;;;;2.60;2.40;;;14.30;99.90;;;;;;6301504;28;20465;-64
2021/05/17 06:17:16;;;;;;;2.87;2.67;;;14.30;99.90;;;;;;6293296;28;20473;-64
2021/05/17 06:20:20;;;;;;;3.80;2.57;;;14.30;99.90;;;;;;6298589;28;21019;-66
2021/05/17 06:23:23;;;;;;;3.20;2.03;;;14.40;99.90;;;;;;6302097;28;20468;-65
2021/05/17 06:26:27;;;;;;;3.77;2.73;;;14.50;99.90;;;;;;6302277;28;20928;-61
2021/05/17 06:29:30;;;;;;;4.33;3.27;;;14.50;99.90;;;;;;6301817;28;20553;-61
2021/05/17 06:32:37;;;;;;;2.70;2.50;;;14.60;99.90;;;;;;6302073;28;20473;-61
2021/05/17 06:35:44;;;;;;;2.07;1.87;;;14.70;99.90;;;;;;6301881;28;20975;-63
2021/05/17 06:38:47;;;;;;;1.90;1.80;;;14.80;99.90;;;;;;6301885;28;20469;-64
2021/05/17 06:41:50;;;;;;;2.40;1.90;;;15.00;99.90;;;;;;6301361;28;20479;-60
2021/05/17 06:44:53;;;;;;;2.30;2.10;;;15.10;99.90;;;;;;6301532;28;20563;-61
2021/05/17 06:47:57;;;;;;;2.40;2.20;;;15.20;99.90;;;;;;6301734;28;20469;-60
2021/05/17 06:51:00;;;;;;;2.60;2.27;;;15.20;99.90;;;;;;6301452;28;20477;-64
2021/05/17 06:54:04;;;;;;;2.17;1.97;;;15.30;99.90;;;;;;6301652;28;20465;-65
2021/05/17 06:57:09;;;;;;;2.90;2.20;;;15.40;99.90;;;;;;6300989;28;20487;-64
2021/05/17 07:00:19;;;;;;;2.93;2.70;;;15.50;99.90;;;;;;6286156;28;20474;-64
2021/05/17 07:03:24;;;;;;;3.87;2.60;;;15.60;99.90;;;;;;6289420;28;20811;-63
2021/05/17 07:06:28;;;;;;;2.30;2.10;;;15.70;99.90;;;;;;6297501;28;20466;-65
2021/05/17 07:13:01;;;;;;;2.00;1.73;;;15.80;99.90;;;;;;6263451;28;20476;-63
2021/05/17 07:16:04;;;;;;;2.63;1.70;;;15.90;99.90;;;;;;6287907;28;20983;-61
2021/05/17 07:19:07;;;;;;;1.60;1.50;;;16.00;99.90;;;;;;6300506;28;20487;-62
2021/05/17 07:25:31;;;;;;;2.47;1.50;;;16.20;99.90;;;;;;6300544;28;20971;-63
2021/05/17 07:28:39;;;;;;;2.03;1.50;;;16.50;99.90;;;;;;6300998;28;20477;-59
2021/05/17 07:31:42;;;;;;;1.17;1.00;;;16.60;99.90;;;;;;6299491;28;20480;-59
2021/05/17 07:34:45;;;;;;;2.67;1.67;;;16.60;99.90;;;;;;6275232;28;20472;-60
2021/05/17 07:37:48;;;;;;;1.13;0.97;;;16.50;99.90;;;;;;6275630;28;20474;-63
2021/05/17 07:40:51;;;;;;;1.07;0.97;;;16.30;99.90;;;;;;6275240;28;20784;-63
2021/05/17 07:43:54;;;;;;;1.20;0.90;;;16.30;99.90;;;;;;6275018;28;20817;-63
2021/05/17 07:46:56;;;;;;;1.83;1.13;;;16.30;99.90;;;;;;6275638;28;20793;-68
2021/05/17 07:50:01;;;;;;;1.83;1.30;;;16.30;99.90;;;;;;6274791;28;20480;-69
2021/05/17 07:53:03;;;;;;;2.20;1.20;;;16.30;99.90;;;;;;6276115;28;20470;-68
2021/05/17 07:56:06;;;;;;;1.83;1.30;;;16.20;99.90;;;;;;6299977;28;20472;-69
2021/05/17 07:59:09;;;;;;;1.87;1.00;;;16.30;99.90;;;;;;6291060;28;20509;-66
2021/05/17 08:02:20;;;;;;;2.03;1.47;;;16.20;99.90;;;;;;6274978;28;20580;-65
2021/05/17 08:05:24;;;;;;;3.40;1.67;;;16.20;99.90;;;;;;6274820;28;20462;-65
2021/05/17 08:08:27;;;;;;;1.47;1.20;;;16.10;99.90;;;;;;6296683;28;20480;-71
2021/05/17 08:11:29;;;;;;;2.00;1.60;;;16.00;99.90;;;;;;6299072;28;20853;-60
2021/05/17 08:14:32;;;;;;;1.40;1.30;;;15.90;99.90;;;;;;6299463;28;20484;-60
2021/05/17 08:17:35;;;;;;;1.80;1.70;;;15.90;99.90;;;;;;6299302;28;20483;-67
2021/05/17 08:20:42;;;;;;;1.57;1.47;;;15.90;99.90;;;;;;6299142;28;20952;-69
2021/05/17 08:23:44;;;;;;;1.13;1.03;;;15.90;99.90;;;;;;6294526;28;20473;-65
2021/05/17 08:26:47;;;;;;;1.60;1.50;;;15.90;99.90;;;;;;6299326;28;20477;-65
2021/05/17 08:29:51;;;;;;;1.13;1.00;;;16.10;99.90;;;;;;6298865;28;20480;-62
2021/05/17 08:32:54;;;;;;;0.87;0.87;;;16.00;99.90;;;;;;6293777;28;20473;-69
2021/05/17 08:35:58;;;;;;;1.17;1.07;;;16.10;99.90;;;;;;6274175;28;20470;-69
2021/05/17 08:39:00;;;;;;;2.73;1.70;;;16.20;99.90;;;;;;6274449;28;20484;-67
2021/05/17 08:42:04;;;;;;;2.00;1.30;;;16.40;99.90;;;;;;6273854;28;20476;-62
2021/05/17 08:45:08;;;;;;;3.30;1.70;;;16.60;99.90;;;;;;6273214;28;20478;-62
2021/05/17 08:48:11;;;;;;;1.90;1.07;;;16.50;99.90;;;;;;6273616;28;20474;-61
2021/05/17 08:51:17;;;;;;;1.80;1.63;;;16.60;99.90;;;;;;6273517;28;20478;-66
2021/05/17 08:54:20;;;;;;;1.97;1.20;;;16.80;99.90;;;;;;6275408;28;20925;-65
2021/05/17 08:57:23;;;;;;;1.00;1.00;;;16.80;99.90;;;;;;6298458;28;20469;-67
2021/05/17 09:00:26;;;;;;;0.97;0.87;;;16.70;99.90;;;;;;6286865;28;20485;-66
2021/05/17 09:03:28;;;;;;;3.37;1.23;;;16.80;99.90;;;;;;6272550;28;20477;-66
2021/05/17 09:06:40;;;;;;;1.60;1.20;;;17.00;99.90;;;;;;6278613;28;20928;-66
2021/05/17 09:09:43;;;;;;;1.63;0.90;;;16.70;99.90;;;;;;6296309;28;20473;-66
2021/05/17 09:13:10;;;;;;;1.63;1.53;;;16.70;99.90;;;;;;6297575;28;20469;-66
2021/05/17 09:16:13;;;;;;;2.30;1.20;;;16.70;99.90;;;;;;6277641;28;20961;-65
2021/05/17 09:19:17;;;;;;;1.70;0.90;;;16.60;99.90;;;;;;6297595;28;20477;-66
2021/05/17 09:22:20;;;;;;;1.57;1.23;;;16.60;99.90;;;;;;6297773;28;20452;-59
2021/05/17 09:25:23;;;;;;;2.30;1.20;;;16.80;99.90;;;;;;6298965;28;20477;-59
2021/05/17 09:28:28;;;;;;;2.87;1.17;;;16.80;99.90;;;;;;6297886;28;20460;-60
2021/05/17 09:31:30;;;;;;;1.53;1.20;;;16.70;98.90;;;;;;6298349;28;20469;-60
2021/05/17 09:34:34;;;;;;;2.20;1.73;;;16.80;98.00;;;;;;6298236;28;20471;-60
2021/05/17 09:37:46;;;;;;;1.43;1.10;;;17.00;99.20;;;;;;6298452;28;20465;-63
2021/05/17 09:41:05;;;;;;;0.70;0.60;;;17.20;98.90;;;;;;6298149;28;20465;-62
2021/05/17 09:44:08;;;;;;;2.00;0.60;;;17.30;96.80;;;;;;6296533;28;20465;-63
2021/05/17 09:47:14;;;;;;;0.87;0.87;;;17.40;94.90;;;;;;6298172;28;20469;-61
2021/05/17 09:50:17;;;;;;;1.10;0.87;;;17.40;95.50;;;;;;6298112;28;20971;-62
2021/05/17 09:53:24;;;;;;;1.67;1.07;;;17.60;97.20;;;;;;6297999;28;20472;-63
2021/05/17 09:56:30;;;;;;;1.80;1.00;;;17.70;97.80;;;;;;6298019;28;20481;-67
2021/05/17 09:59:38;;;;;;;2.10;0.93;;;17.50;97.40;;;;;;6299703;28;21091;-66
2021/05/17 10:02:43;;;;;;;1.73;0.73;;;17.40;98.00;;;;;;6277963;28;20462;-66
2021/05/17 10:05:48;;;;;;;2.93;1.40;;;17.30;96.50;;;;;;6278102;28;20485;-66
2021/05/17 10:08:57;;;;;;;2.53;1.47;;;17.20;98.40;;;;;;6277816;28;20617;-66
2021/05/17 10:12:00;;;;;;;3.17;1.50;;;17.10;99.90;;;;;;6277392;28;20489;-67
2021/05/17 10:15:06;;;;;;;3.27;1.60;;;17.00;99.90;;;;;;6277314;28;20474;-67
2021/05/17 10:18:09;;;;;;;2.00;1.67;;;17.10;99.90;;;;;;6286612;28;20540;-67
2021/05/17 10:21:15;;;;;;;2.30;1.20;;;17.10;99.90;;;;;;6301858;28;20492;-66
2021/05/17 10:24:19;;;;;;;1.33;1.23;;;17.00;99.90;;;;;;6302260;28;20477;-69
2021/05/17 10:27:45;;;;;;;2.80;1.47;;;16.80;99.90;;;;;;6302160;28;20482;-67
2021/05/17 10:30:48;;;;;;;2.83;1.70;;;16.70;99.90;;;;;;6302029;28;20469;-71
2021/05/17 10:33:59;;;;;;;1.93;1.40;;;16.50;99.90;;;;;;6291701;28;20701;-73
2021/05/17 10:37:02;;;;;;;2.57;1.47;;;16.50;99.90;;;;;;6301537;28;21011;-69
2021/05/17 10:40:09;;;;;;;2.03;1.40;;;16.60;99.90;;;;;;6302839;28;20488;-69
2021/05/17 10:43:22;;;;;;;2.10;1.60;;;16.60;99.90;;;;;;6299370;28;20457;-72
2021/05/17 10:46:37;;;;;;;1.33;1.23;;;16.70;99.90;;;;;;6299996;28;20430;-72
2021/05/17 10:50:11;;;;;;;1.57;1.40;;;16.80;99.90;;;;;;6299956;28;20481;-70
2021/05/17 10:53:52;;;;;;;2.33;1.90;;;17.00;99.90;;;;;;6300323;28;20478;-65
2021/05/17 10:57:00;;;;;;;2.07;1.80;;;17.00;99.90;;;;;;6297422;28;20468;-63
2021/05/17 11:00:25;;;;;;;2.93;1.67;;;17.10;99.90;;;;;;6292363;28;20474;-65
2021/05/17 11:03:27;;;;;;;1.80;1.70;;;17.00;99.90;;;;;;6276418;28;20470;-67
2021/05/17 11:06:30;;;;;;;2.30;1.20;;;16.90;99.90;;;;;;6281790;28;20469;-71
2021/05/17 11:09:41;;;;;;;1.50;1.20;;;16.80;99.90;;;;;;6299802;28;20777;-71
2021/05/17 11:13:09;;;;;;;1.30;1.20;;;16.60;99.90;;;;;;6298894;28;20473;-70
2021/05/17 11:16:15;;;;;;;1.63;1.20;;;16.50;99.90;;;;;;6300236;28;20472;-64
2021/05/17 11:19:18;;;;;;;2.20;1.40;;;16.60;99.90;;;;;;6299921;28;20433;-65
2021/05/17 11:22:21;;;;;;;1.33;0.70;;;16.80;99.90;;;;;;6299988;28;20485;-66
2021/05/17 11:25:45;;;;;;;2.53;1.30;;;16.90;99.20;;;;;;6300567;28;20441;-65
2021/05/17 11:29:05;;;;;;;1.90;0.87;;;17.00;99.80;;;;;;6300780;28;20484;-65
2021/05/17 11:32:10;;;;;;;1.10;0.80;;;17.20;99.10;;;;;;6300092;28;20485;-65
2021/05/17 11:35:21;;;;;;;1.10;0.80;;;17.40;97.80;;;;;;6295108;28;20465;-65
2021/05/17 11:38:24;;;;;;;1.10;0.73;;;17.60;96.40;;;;;;6299580;28;20794;-65
2021/05/17 11:41:30;;;;;;;0.77;0.50;;;17.70;95.30;;;;;;6299243;28;20802;-66
2021/05/17 11:44:36;;;;;;;0.90;0.70;;;17.80;93.80;;;;;;6297063;28;20470;-66
2021/05/17 11:47:39;;;;;;;4.53;0.93;;;17.80;93.80;;;;;;6298118;28;20913;-66
2021/05/17 11:50:43;;;;;;;2.53;1.27;;;17.90;94.80;;;;;;6298933;28;20469;-65
2021/05/17 11:53:46;;;;;;;2.10;1.63;;;18.10;95.90;;;;;;6299173;28;20488;-66
2021/05/17 11:56:51;;;;;;;1.83;1.40;;;18.20;96.20;;;;;;6298949;28;20462;-66
2021/05/17 11:59:55;;;;;;;0.80;0.80;;;18.20;97.10;;;;;;6291232;28;20466;-67
2021/05/17 12:02:58;;;;;;;0.80;0.70;;;18.20;96.70;;;;;;6275219;28;20554;-66
2021/05/17 12:06:01;;;;;;;1.10;0.97;;;18.20;95.90;;;;;;6276138;28;20492;-66
2021/05/17 12:09:04;;;;;;;1.90;1.00;;;18.20;95.20;;;;;;6299539;28;20996;-65
2021/05/17 12:12:09;;;;;;;1.30;0.70;;;18.40;94.90;;;;;;6299244;28;20823;-65
2021/05/17 12:15:18;;;;;;;1.10;0.40;;;18.40;90.20;;;;;;6299621;28;20581;-66
2021/05/17 12:18:21;;;;;;;0.87;0.33;;;18.50;90.80;;;;;;6299174;28;20479;-66
2021/05/17 12:21:24;;;;;;;0.50;0.37;;;18.50;88.30;;;;;;6299096;28;20223;-66
2021/05/17 12:24:29;;;;;;;0.60;0.43;;;18.40;85.10;;;;;;6298898;28;20484;-66
2021/05/17 12:27:32;;;;;;;1.03;0.40;;;18.40;85.40;;;;;;6299250;28;20480;-65
2021/05/17 12:30:36;;;;;;;0.43;0.20;;;18.30;83.00;;;;;;6298859;28;20469;-65
2021/05/17 12:33:41;;;;;;;0.60;0.30;;;18.20;82.00;;;;;;6298643;28;20828;-65
2021/05/17 12:36:44;;;;;;;0.60;0.37;;;18.30;82.40;;;;;;6295921;28;20484;-65
2021/05/17 12:40:29;;;;;;;0.70;0.50;;;18.40;83.50;;;;;;6298328;28;20473;-69
2021/05/17 12:43:35;;;;;;;1.53;0.30;;;18.60;83.00;;;;;;6298852;28;20627;-69
2021/05/17 12:46:40;;;;;;;1.27;0.40;;;18.50;80.80;;;;;;6300669;28;20461;-65
2021/05/17 12:49:44;;;;;;;0.63;0.40;;;18.30;76.50;;;;;;6299854;28;20473;-65
2021/05/17 12:52:48;;;;;;;0.53;0.33;;;18.10;80.30;;;;;;6299909;28;20948;-64
2021/05/17 12:55:53;;;;;;;0.47;0.30;;;18.10;79.00;;;;;;6299472;28;20464;-66
2021/05/17 12:58:56;;;;;;;0.93;0.50;;;18.00;75.80;;;;;;6299123;28;20465;-67
2021/05/17 13:02:11;;;;;;;0.80;0.47;;;17.90;79.10;;;;;;6275339;28;20474;-64
2021/05/17 13:05:13;;;;;;;0.80;0.50;;;17.80;78.10;;;;;;6274330;28;20785;-65
2021/05/17 13:08:17;;;;;;;0.60;0.40;;;17.70;78.70;;;;;;6294276;28;20465;-66
2021/05/17 13:11:31;;;;;;;1.07;0.40;;;17.90;79.50;;;;;;6297473;28;20469;-68
2021/05/17 13:14:40;;;;;;;0.70;0.50;;;18.10;77.80;;;;;;6298274;28;20481;-63
2021/05/17 13:17:56;;;;;;;2.00;0.50;;;18.10;75.50;;;;;;6298927;28;20473;-70
2021/05/17 13:21:12;;;;;;;0.80;0.43;;;18.00;75.50;;;;;;6298231;28;20489;-64
2021/05/17 13:24:35;;;;;;;0.70;0.30;;;18.00;78.60;;;;;;6296743;28;20497;-69
2021/05/17 13:31:02;;;;;;;1.10;0.50;;;18.00;74.50;;;;;;6280333;28;20978;-66
2021/05/17 13:34:10;;;;;;;1.90;0.60;;;18.10;76.00;;;;;;6289331;28;20975;-64
2021/05/17 13:37:15;;;;;;;0.70;0.60;;;18.30;76.70;;;;;;6285144;28;20484;-65
2021/05/17 13:40:20;;;;;;;0.50;0.40;;;18.60;77.70;;;;;;6302356;28;20461;-67
2021/05/17 13:43:24;;;;;;;1.37;0.60;;;19.00;73.40;;;;;;6303462;28;20517;-67
2021/05/17 13:46:27;;;;;;;1.33;0.50;;;19.10;77.00;;;;;;6302455;28;20538;-65
2021/05/17 13:49:33;;;;;;;1.07;0.70;;;19.00;78.90;;;;;;6303211;28;20456;-61
2021/05/17 13:52:36;;;;;;;1.83;0.40;;;19.30;79.60;;;;;;6302747;28;20233;-68
2021/05/17 13:55:39;;;;;;;0.70;0.50;;;19.50;76.40;;;;;;6303083;28;20222;-68
2021/05/17 13:58:41;;;;;;;0.63;0.43;;;19.40;73.30;;;;;;6302468;28;20233;-61
2021/05/17 14:01:44;;;;;;;1.90;0.70;;;19.30;73.10;;;;;;6301511;28;20219;-61
2021/05/17 14:04:48;;;;;;;1.23;0.47;;;19.40;72.10;;;;;;6302110;28;20245;-68
2021/05/17 14:07:51;;;;;;;0.60;0.47;;;19.40;71.10;;;;;;6285809;28;20231;-67
2021/05/17 14:10:54;;;;;;;0.60;0.30;;;19.40;69.50;;;;;;6291922;28;20666;-61
2021/05/17 14:13:57;;;;;;;1.83;0.57;;;19.40;69.70;;;;;;6301574;28;20670;-62
2021/05/17 14:17:00;;;;;;;0.63;0.33;;;19.50;70.00;;;;;;6302102;28;20233;-61
2021/05/17 14:20:06;;;;;;;0.80;0.70;;;19.50;69.80;;;;;;6301508;28;20242;-62
2021/05/17 14:23:10;;;;;;;0.73;0.50;;;19.70;72.10;;;;;;6299678;28;20227;-61
2021/05/17 14:26:13;;;;;;;0.50;0.30;;;19.90;70.40;;;;;;6301539;28;20670;-58
2021/05/17 14:29:16;;;;;;;2.17;0.60;;;19.80;68.10;;;;;;6301627;28;20241;-58
2021/05/17 14:32:18;;;;;;;2.50;0.77;;;19.50;68.40;;;;;;6300972;28;20697;-58
2021/05/17 14:35:22;;;;;;;2.00;0.60;;;19.30;69.90;;;;;;6301504;28;20662;-61
2021/05/17 14:38:25;;;;;;;0.90;0.53;;;19.10;69.80;;;;;;6291131;28;20565;-65
2021/05/17 14:41:28;;;;;;;0.77;0.30;;;19.00;69.40;;;;;;6285183;28;20666;-60
2021/05/17 14:44:30;;;;;;;0.50;0.33;;;19.20;69.80;;;;;;6301377;28;20241;-60
2021/05/17 14:47:33;;;;;;;1.60;0.30;;;19.30;68.20;;;;;;6272805;28;20243;-62
2021/05/17 14:50:37;;;;;;;1.13;0.80;;;19.10;69.10;;;;;;6276255;28;20497;-62
2021/05/17 14:53:40;;;;;;;0.80;0.60;;;19.00;68.70;;;;;;6280195;28;20215;-61
2021/05/17 14:56:43;;;;;;;1.13;0.50;;;18.90;67.70;;;;;;6301266;28;20559;-61
2021/05/17 14:59:46;;;;;;;0.80;0.50;;;18.80;69.00;;;;;;6296123;28;20569;-62
2021/05/17 15:02:49;;;;;;;1.20;0.60;;;18.70;67.90;;;;;;6283867;28;20500;-63
2021/05/17 15:05:52;;;;;;;1.80;0.50;;;18.70;69.70;;;;;;6300607;28;20484;-63
2021/05/17 15:08:55;;;;;;;4.10;0.80;;;18.80;70.40;;;;;;6300997;28;20475;-63
2021/05/17 15:11:58;;;;;;;2.63;0.87;;;18.90;69.80;;;;;;6300453;28;20484;-61
2021/05/17 15:15:01;;;;;;;0.50;0.40;;;19.00;69.80;;;;;;6300621;28;20234;-62
2021/05/17 15:18:04;;;;;;;0.80;0.50;;;19.20;69.10;;;;;;6299197;28;20483;-59
2021/05/17 15:21:08;;;;;;;0.77;0.40;;;19.10;65.70;;;;;;6300381;28;20227;-59
2021/05/17 15:24:11;;;;;;;0.70;0.30;;;19.00;60.30;;;;;;6300177;28;20313;-60
2021/05/17 15:27:14;;;;;;;1.77;0.57;;;18.90;58.70;;;;;;6300120;28;20231;-59
2021/05/17 15:30:18;;;;;;;0.50;0.40;;;18.90;59.00;;;;;;6299526;28;20230;-59
2021/05/17 15:33:23;;;;;;;0.93;0.60;;;18.90;58.80;;;;;;6300207;28;20227;-60
2021/05/17 15:36:26;;;;;;;0.83;0.70;;;18.90;58.80;;;;;;6299993;28;20465;-60
2021/05/17 15:39:29;;;;;;;0.93;0.53;;;19.00;58.30;;;;;;6276447;28;20489;-60
2021/05/17 15:42:32;;;;;;;0.77;0.43;;;18.90;56.60;;;;;;6274758;28;20961;-60
2021/05/17 15:45:35;;;;;;;0.57;0.37;;;18.90;57.40;;;;;;6274448;28;20571;-60
2021/05/17 15:48:43;;;;;;;1.27;0.30;;;19.00;58.40;;;;;;6274884;28;20564;-59
2021/05/17 15:51:47;;;;;;;0.60;0.40;;;19.10;57.70;;;;;;6274495;28;20239;-60
2021/05/17 15:54:50;;;;;;;0.63;0.33;;;19.20;57.00;;;;;;6270657;28;20242;-60
2021/05/17 15:57:53;;;;;;;0.50;0.30;;;19.20;56.10;;;;;;6299124;28;20234;-58
2021/05/17 16:00:56;;;;;;;1.43;0.33;;;19.20;56.90;;;;;;6284956;28;20246;-60
2021/05/17 16:03:59;;;;;;;0.77;0.50;;;19.30;57.20;;;;;;6289071;28;20226;-60
2021/05/17 16:07:03;;;;;;;3.23;0.50;;;19.30;56.50;;;;;;6288429;28;20270;-60
2021/05/17 16:10:08;;;;;;;0.60;0.40;;;19.30;56.30;;;;;;6270432;28;20232;-60
2021/05/17 16:13:14;;;;;;;0.60;0.40;;;19.30;58.30;;;;;;6289623;28;20215;-59
2021/05/17 16:16:23;;;;;;;0.80;0.50;;;19.30;56.70;;;;;;6295518;28;20245;-60
2021/05/17 16:22:50;;;;;;;0.80;0.40;;;19.50;57.90;;;;;;6286509;28;20231;-60